sensor_id;sensor_type;location;lat;lon;timestamp;P1;durP1;ratioP1;P2;durP2;ratioP2
53253;SDS011;39148;53.332;6.922;2023-03-13T00:00:57;10.48;;;2.53;;
53253;SDS011;39148;53.332;6.922;2023-03-13T00:03:24;9.93;;;2.30;;
53253;SDS011;39148;53.332;6.922;2023-03-13T00:05:54;14.10;;;2.33;;
53253;SDS011;39148;53.332;6.922;2023-03-13T00:08:20;14.55;;;3.17;;
53253;SDS011;39148;53.332;6.922;2023-03-13T00:10:46;13.98;;;2.42;;
53253;SDS011;39148;53.332;6.922;2023-03-13T00:13:12;11.55;;;2.22;;
53253;SDS011;39148;53.332;6.922;2023-03-13T00:15:38;8.52;;;2.03;;
53253;SDS011;39148;53.332;6.922;2023-03-13T00:18:04;14.95;;;2.70;;
53253;SDS011;39148;53.332;6.922;2023-03-13T00:20:31;14.75;;;2.35;;
53253;SDS011;39148;53.332;6.922;2023-03-13T00:22:57;12.60;;;2.75;;
53253;SDS011;39148;53.332;6.922;2023-03-13T00:25:22;15.57;;;2.88;;
53253;SDS011;39148;53.332;6.922;2023-03-13T00:27:48;13.60;;;2.30;;
53253;SDS011;39148;53.332;6.922;2023-03-13T00:30:14;12.68;;;2.45;;
53253;SDS011;39148;53.332;6.922;2023-03-13T00:32:44;9.57;;;2.38;;
53253;SDS011;39148;53.332;6.922;2023-03-13T00:35:11;10.65;;;2.45;;
53253;SDS011;39148;53.332;6.922;2023-03-13T00:37:37;11.52;;;2.90;;
53253;SDS011;39148;53.332;6.922;2023-03-13T00:40:03;13.43;;;2.78;;
53253;SDS011;39148;53.332;6.922;2023-03-13T00:42:30;12.50;;;2.45;;
53253;SDS011;39148;53.332;6.922;2023-03-13T00:44:56;11.10;;;2.45;;
53253;SDS011;39148;53.332;6.922;2023-03-13T00:47:22;11.90;;;2.47;;
53253;SDS011;39148;53.332;6.922;2023-03-13T00:49:48;14.40;;;2.67;;
53253;SDS011;39148;53.332;6.922;2023-03-13T00:52:14;13.02;;;2.70;;
53253;SDS011;39148;53.332;6.922;2023-03-13T00:54:40;16.35;;;2.60;;
53253;SDS011;39148;53.332;6.922;2023-03-13T00:57:07;14.35;;;3.28;;
53253;SDS011;39148;53.332;6.922;2023-03-13T00:59:33;16.52;;;3.08;;
53253;SDS011;39148;53.332;6.922;2023-03-13T01:01:59;11.23;;;2.25;;
53253;SDS011;39148;53.332;6.922;2023-03-13T01:04:25;12.98;;;2.53;;
53253;SDS011;39148;53.332;6.922;2023-03-13T01:06:52;15.35;;;3.67;;
53253;SDS011;39148;53.332;6.922;2023-03-13T01:09:18;9.75;;;2.30;;
53253;SDS011;39148;53.332;6.922;2023-03-13T01:11:44;13.52;;;3.00;;
53253;SDS011;39148;53.332;6.922;2023-03-13T01:14:12;11.68;;;2.47;;
53253;SDS011;39148;53.332;6.922;2023-03-13T01:16:38;11.73;;;2.33;;
53253;SDS011;39148;53.332;6.922;2023-03-13T01:19:09;15.52;;;2.28;;
53253;SDS011;39148;53.332;6.922;2023-03-13T01:21:35;14.95;;;2.97;;
53253;SDS011;39148;53.332;6.922;2023-03-13T01:24:01;15.38;;;2.97;;
53253;SDS011;39148;53.332;6.922;2023-03-13T01:26:28;16.55;;;3.58;;
53253;SDS011;39148;53.332;6.922;2023-03-13T01:28:54;11.25;;;2.75;;
53253;SDS011;39148;53.332;6.922;2023-03-13T01:31:21;17.75;;;2.78;;
53253;SDS011;39148;53.332;6.922;2023-03-13T01:33:49;12.40;;;3.03;;
53253;SDS011;39148;53.332;6.922;2023-03-13T01:36:15;10.90;;;2.33;;
53253;SDS011;39148;53.332;6.922;2023-03-13T01:38:42;13.65;;;2.85;;
53253;SDS011;39148;53.332;6.922;2023-03-13T01:41:09;10.20;;;2.78;;
53253;SDS011;39148;53.332;6.922;2023-03-13T01:43:36;13.88;;;3.08;;
53253;SDS011;39148;53.332;6.922;2023-03-13T01:46:16;16.48;;;2.95;;
53253;SDS011;39148;53.332;6.922;2023-03-13T01:48:44;13.85;;;2.80;;
53253;SDS011;39148;53.332;6.922;2023-03-13T01:51:12;11.73;;;2.70;;
53253;SDS011;39148;53.332;6.922;2023-03-13T01:53:40;11.80;;;2.70;;
53253;SDS011;39148;53.332;6.922;2023-03-13T01:56:10;18.08;;;3.15;;
53253;SDS011;39148;53.332;6.922;2023-03-13T01:58:49;17.33;;;3.13;;
53253;SDS011;39148;53.332;6.922;2023-03-13T02:01:17;14.30;;;3.00;;
53253;SDS011;39148;53.332;6.922;2023-03-13T02:03:43;10.30;;;2.67;;
53253;SDS011;39148;53.332;6.922;2023-03-13T02:06:11;13.57;;;2.97;;
53253;SDS011;39148;53.332;6.922;2023-03-13T02:08:39;15.35;;;2.95;;
53253;SDS011;39148;53.332;6.922;2023-03-13T02:13:33;14.65;;;2.83;;
53253;SDS011;39148;53.332;6.922;2023-03-13T02:15:58;10.73;;;2.55;;
53253;SDS011;39148;53.332;6.922;2023-03-13T02:18:25;13.15;;;2.42;;
53253;SDS011;39148;53.332;6.922;2023-03-13T02:20:52;10.57;;;2.42;;
53253;SDS011;39148;53.332;6.922;2023-03-13T02:23:24;13.73;;;3.13;;
53253;SDS011;39148;53.332;6.922;2023-03-13T02:25:52;14.88;;;3.15;;
53253;SDS011;39148;53.332;6.922;2023-03-13T02:28:20;14.90;;;2.80;;
53253;SDS011;39148;53.332;6.922;2023-03-13T02:30:46;12.77;;;2.67;;
53253;SDS011;39148;53.332;6.922;2023-03-13T02:33:14;11.15;;;2.60;;
53253;SDS011;39148;53.332;6.922;2023-03-13T02:35:42;11.68;;;3.38;;
53253;SDS011;39148;53.332;6.922;2023-03-13T02:38:10;12.50;;;2.40;;
53253;SDS011;39148;53.332;6.922;2023-03-13T02:40:41;17.23;;;4.18;;
53253;SDS011;39148;53.332;6.922;2023-03-13T02:43:31;11.70;;;2.75;;
53253;SDS011;39148;53.332;6.922;2023-03-13T02:45:59;14.63;;;3.03;;
53253;SDS011;39148;53.332;6.922;2023-03-13T02:48:39;13.23;;;2.97;;
53253;SDS011;39148;53.332;6.922;2023-03-13T02:53:51;13.52;;;2.92;;
53253;SDS011;39148;53.332;6.922;2023-03-13T02:56:19;12.45;;;2.70;;
53253;SDS011;39148;53.332;6.922;2023-03-13T02:58:47;11.77;;;3.20;;
53253;SDS011;39148;53.332;6.922;2023-03-13T03:01:13;11.45;;;3.08;;
53253;SDS011;39148;53.332;6.922;2023-03-13T03:03:39;13.73;;;2.90;;
53253;SDS011;39148;53.332;6.922;2023-03-13T03:06:05;14.35;;;2.97;;
53253;SDS011;39148;53.332;6.922;2023-03-13T03:08:32;14.77;;;2.80;;
53253;SDS011;39148;53.332;6.922;2023-03-13T03:10:58;11.35;;;2.53;;
53253;SDS011;39148;53.332;6.922;2023-03-13T03:13:24;10.95;;;2.72;;
53253;SDS011;39148;53.332;6.922;2023-03-13T03:15:50;8.32;;;2.40;;
53253;SDS011;39148;53.332;6.922;2023-03-13T03:18:16;11.50;;;2.55;;
53253;SDS011;39148;53.332;6.922;2023-03-13T03:20:42;9.38;;;2.40;;
53253;SDS011;39148;53.332;6.922;2023-03-13T03:23:08;10.50;;;2.42;;
53253;SDS011;39148;53.332;6.922;2023-03-13T03:25:35;7.70;;;2.50;;
53253;SDS011;39148;53.332;6.922;2023-03-13T03:28:01;10.95;;;2.42;;
53253;SDS011;39148;53.332;6.922;2023-03-13T03:30:27;9.18;;;2.20;;
53253;SDS011;39148;53.332;6.922;2023-03-13T03:32:53;10.35;;;2.80;;
53253;SDS011;39148;53.332;6.922;2023-03-13T03:35:20;11.30;;;2.58;;
53253;SDS011;39148;53.332;6.922;2023-03-13T03:37:46;10.15;;;2.50;;
53253;SDS011;39148;53.332;6.922;2023-03-13T03:40:12;10.95;;;2.20;;
53253;SDS011;39148;53.332;6.922;2023-03-13T03:42:38;8.48;;;2.00;;
53253;SDS011;39148;53.332;6.922;2023-03-13T03:45:04;10.05;;;2.28;;
53253;SDS011;39148;53.332;6.922;2023-03-13T03:47:31;8.52;;;1.90;;
53253;SDS011;39148;53.332;6.922;2023-03-13T03:49:57;8.07;;;1.70;;
53253;SDS011;39148;53.332;6.922;2023-03-13T03:52:23;7.03;;;2.10;;
53253;SDS011;39148;53.332;6.922;2023-03-13T03:54:49;10.07;;;2.15;;
53253;SDS011;39148;53.332;6.922;2023-03-13T03:57:15;8.52;;;1.73;;
53253;SDS011;39148;53.332;6.922;2023-03-13T03:59:41;7.28;;;1.58;;
53253;SDS011;39148;53.332;6.922;2023-03-13T04:02:07;8.80;;;2.13;;
53253;SDS011;39148;53.332;6.922;2023-03-13T04:04:33;4.45;;;1.27;;
53253;SDS011;39148;53.332;6.922;2023-03-13T04:06:59;6.88;;;1.58;;
53253;SDS011;39148;53.332;6.922;2023-03-13T04:09:25;7.20;;;1.75;;
53253;SDS011;39148;53.332;6.922;2023-03-13T04:11:51;9.63;;;1.73;;
53253;SDS011;39148;53.332;6.922;2023-03-13T04:14:17;5.25;;;1.27;;
53253;SDS011;39148;53.332;6.922;2023-03-13T04:16:43;5.97;;;1.30;;
53253;SDS011;39148;53.332;6.922;2023-03-13T04:19:09;7.75;;;1.55;;
53253;SDS011;39148;53.332;6.922;2023-03-13T04:21:36;6.25;;;1.42;;
53253;SDS011;39148;53.332;6.922;2023-03-13T04:24:03;6.25;;;1.48;;
53253;SDS011;39148;53.332;6.922;2023-03-13T04:26:29;4.28;;;1.20;;
53253;SDS011;39148;53.332;6.922;2023-03-13T04:28:55;4.80;;;1.25;;
53253;SDS011;39148;53.332;6.922;2023-03-13T04:31:21;4.40;;;1.10;;
53253;SDS011;39148;53.332;6.922;2023-03-13T04:33:47;5.05;;;1.17;;
53253;SDS011;39148;53.332;6.922;2023-03-13T04:36:13;4.72;;;1.13;;
53253;SDS011;39148;53.332;6.922;2023-03-13T04:38:39;4.47;;;1.00;;
53253;SDS011;39148;53.332;6.922;2023-03-13T04:41:05;3.65;;;1.00;;
53253;SDS011;39148;53.332;6.922;2023-03-13T04:43:31;2.58;;;0.90;;
53253;SDS011;39148;53.332;6.922;2023-03-13T04:45:57;4.47;;;1.13;;
53253;SDS011;39148;53.332;6.922;2023-03-13T04:48:23;4.60;;;1.02;;
53253;SDS011;39148;53.332;6.922;2023-03-13T04:50:50;3.17;;;1.10;;
53253;SDS011;39148;53.332;6.922;2023-03-13T04:53:16;3.00;;;1.10;;
53253;SDS011;39148;53.332;6.922;2023-03-13T04:55:42;3.97;;;0.90;;
53253;SDS011;39148;53.332;6.922;2023-03-13T04:58:08;3.28;;;0.80;;
53253;SDS011;39148;53.332;6.922;2023-03-13T05:00:34;5.25;;;1.10;;
53253;SDS011;39148;53.332;6.922;2023-03-13T05:03:00;2.83;;;0.80;;
53253;SDS011;39148;53.332;6.922;2023-03-13T05:05:26;3.03;;;0.85;;
53253;SDS011;39148;53.332;6.922;2023-03-13T05:07:52;4.85;;;1.00;;
53253;SDS011;39148;53.332;6.922;2023-03-13T05:10:18;3.97;;;1.10;;
53253;SDS011;39148;53.332;6.922;2023-03-13T05:12:44;4.05;;;1.23;;
53253;SDS011;39148;53.332;6.922;2023-03-13T05:15:10;2.67;;;0.75;;
53253;SDS011;39148;53.332;6.922;2023-03-13T05:17:36;3.03;;;1.25;;
53253;SDS011;39148;53.332;6.922;2023-03-13T05:20:02;3.85;;;1.33;;
53253;SDS011;39148;53.332;6.922;2023-03-13T05:22:30;3.40;;;1.10;;
53253;SDS011;39148;53.332;6.922;2023-03-13T05:24:56;2.75;;;0.98;;
53253;SDS011;39148;53.332;6.922;2023-03-13T05:27:22;2.05;;;0.80;;
53253;SDS011;39148;53.332;6.922;2023-03-13T05:29:48;2.00;;;0.80;;
53253;SDS011;39148;53.332;6.922;2023-03-13T05:32:13;3.85;;;1.02;;
53253;SDS011;39148;53.332;6.922;2023-03-13T05:34:39;3.65;;;0.90;;
53253;SDS011;39148;53.332;6.922;2023-03-13T05:37:05;2.88;;;0.95;;
53253;SDS011;39148;53.332;6.922;2023-03-13T05:39:31;3.50;;;1.17;;
53253;SDS011;39148;53.332;6.922;2023-03-13T05:41:57;4.25;;;1.27;;
53253;SDS011;39148;53.332;6.922;2023-03-13T05:44:24;2.85;;;1.17;;
53253;SDS011;39148;53.332;6.922;2023-03-13T05:46:50;3.25;;;1.23;;
53253;SDS011;39148;53.332;6.922;2023-03-13T05:49:16;3.58;;;1.33;;
53253;SDS011;39148;53.332;6.922;2023-03-13T05:51:42;3.63;;;1.25;;
53253;SDS011;39148;53.332;6.922;2023-03-13T05:54:07;4.65;;;1.20;;
53253;SDS011;39148;53.332;6.922;2023-03-13T05:56:33;4.53;;;1.30;;
53253;SDS011;39148;53.332;6.922;2023-03-13T05:58:59;5.35;;;1.90;;
53253;SDS011;39148;53.332;6.922;2023-03-13T06:01:25;4.03;;;1.60;;
53253;SDS011;39148;53.332;6.922;2023-03-13T06:03:51;5.45;;;1.75;;
53253;SDS011;39148;53.332;6.922;2023-03-13T06:06:17;4.38;;;1.40;;
53253;SDS011;39148;53.332;6.922;2023-03-13T06:08:43;5.53;;;1.40;;
53253;SDS011;39148;53.332;6.922;2023-03-13T06:11:09;5.45;;;1.75;;
53253;SDS011;39148;53.332;6.922;2023-03-13T06:13:35;4.90;;;1.73;;
53253;SDS011;39148;53.332;6.922;2023-03-13T06:16:02;7.47;;;1.70;;
53253;SDS011;39148;53.332;6.922;2023-03-13T06:18:28;4.50;;;1.63;;
53253;SDS011;39148;53.332;6.922;2023-03-13T06:20:55;4.25;;;1.40;;
53253;SDS011;39148;53.332;6.922;2023-03-13T06:23:21;4.88;;;1.45;;
53253;SDS011;39148;53.332;6.922;2023-03-13T06:25:47;5.28;;;1.42;;
53253;SDS011;39148;53.332;6.922;2023-03-13T06:28:14;5.60;;;1.52;;
53253;SDS011;39148;53.332;6.922;2023-03-13T06:30:40;4.95;;;1.63;;
53253;SDS011;39148;53.332;6.922;2023-03-13T06:33:06;6.68;;;1.60;;
53253;SDS011;39148;53.332;6.922;2023-03-13T06:35:32;5.63;;;1.75;;
53253;SDS011;39148;53.332;6.922;2023-03-13T06:37:58;3.88;;;1.40;;
53253;SDS011;39148;53.332;6.922;2023-03-13T06:40:24;6.53;;;1.83;;
53253;SDS011;39148;53.332;6.922;2023-03-13T06:42:50;5.00;;;1.55;;
53253;SDS011;39148;53.332;6.922;2023-03-13T06:45:16;6.32;;;1.90;;
53253;SDS011;39148;53.332;6.922;2023-03-13T06:47:42;7.30;;;1.77;;
53253;SDS011;39148;53.332;6.922;2023-03-13T06:50:08;6.65;;;2.08;;
53253;SDS011;39148;53.332;6.922;2023-03-13T06:52:34;5.05;;;1.73;;
53253;SDS011;39148;53.332;6.922;2023-03-13T06:55:02;6.20;;;2.05;;
53253;SDS011;39148;53.332;6.922;2023-03-13T06:57:28;7.03;;;1.70;;
53253;SDS011;39148;53.332;6.922;2023-03-13T06:59:54;5.70;;;1.83;;
53253;SDS011;39148;53.332;6.922;2023-03-13T07:02:19;5.43;;;1.75;;
53253;SDS011;39148;53.332;6.922;2023-03-13T07:04:45;7.75;;;2.10;;
53253;SDS011;39148;53.332;6.922;2023-03-13T07:07:11;5.15;;;1.65;;
53253;SDS011;39148;53.332;6.922;2023-03-13T07:09:37;6.05;;;2.10;;
53253;SDS011;39148;53.332;6.922;2023-03-13T07:12:03;6.75;;;2.03;;
53253;SDS011;39148;53.332;6.922;2023-03-13T07:14:30;6.60;;;2.10;;
53253;SDS011;39148;53.332;6.922;2023-03-13T07:16:57;6.97;;;2.10;;
53253;SDS011;39148;53.332;6.922;2023-03-13T07:19:23;6.88;;;2.17;;
53253;SDS011;39148;53.332;6.922;2023-03-13T07:21:51;8.38;;;2.50;;
53253;SDS011;39148;53.332;6.922;2023-03-13T07:24:18;6.95;;;2.10;;
53253;SDS011;39148;53.332;6.922;2023-03-13T07:26:45;6.65;;;2.30;;
53253;SDS011;39148;53.332;6.922;2023-03-13T07:29:11;6.80;;;2.35;;
53253;SDS011;39148;53.332;6.922;2023-03-13T07:31:36;7.22;;;2.53;;
53253;SDS011;39148;53.332;6.922;2023-03-13T07:34:03;7.35;;;2.25;;
53253;SDS011;39148;53.332;6.922;2023-03-13T07:36:29;9.13;;;1.98;;
53253;SDS011;39148;53.332;6.922;2023-03-13T07:38:55;8.80;;;2.17;;
53253;SDS011;39148;53.332;6.922;2023-03-13T07:41:21;5.35;;;1.88;;
53253;SDS011;39148;53.332;6.922;2023-03-13T07:43:47;5.93;;;2.10;;
53253;SDS011;39148;53.332;6.922;2023-03-13T07:46:15;9.85;;;2.33;;
53253;SDS011;39148;53.332;6.922;2023-03-13T07:48:45;8.27;;;2.45;;
53253;SDS011;39148;53.332;6.922;2023-03-13T07:51:21;7.30;;;2.25;;
53253;SDS011;39148;53.332;6.922;2023-03-13T07:53:48;10.48;;;2.25;;
53253;SDS011;39148;53.332;6.922;2023-03-13T07:56:15;10.00;;;2.17;;
53253;SDS011;39148;53.332;6.922;2023-03-13T07:58:43;10.32;;;3.03;;
53253;SDS011;39148;53.332;6.922;2023-03-13T08:01:22;7.18;;;2.42;;
53253;SDS011;39148;53.332;6.922;2023-03-13T08:03:49;4.80;;;2.08;;
53253;SDS011;39148;53.332;6.922;2023-03-13T08:06:18;7.78;;;2.38;;
53253;SDS011;39148;53.332;6.922;2023-03-13T08:08:47;9.23;;;2.45;;
53253;SDS011;39148;53.332;6.922;2023-03-13T08:11:23;6.97;;;2.00;;
53253;SDS011;39148;53.332;6.922;2023-03-13T08:13:49;6.65;;;2.20;;
53253;SDS011;39148;53.332;6.922;2023-03-13T08:16:20;6.65;;;1.80;;
53253;SDS011;39148;53.332;6.922;2023-03-13T08:18:53;8.23;;;2.22;;
53253;SDS011;39148;53.332;6.922;2023-03-13T08:21:23;7.82;;;1.98;;
53253;SDS011;39148;53.332;6.922;2023-03-13T08:23:54;4.97;;;1.77;;
53253;SDS011;39148;53.332;6.922;2023-03-13T08:26:21;4.43;;;1.75;;
53253;SDS011;39148;53.332;6.922;2023-03-13T08:28:50;6.22;;;1.48;;
53253;SDS011;39148;53.332;6.922;2023-03-13T08:31:21;6.75;;;1.65;;
53253;SDS011;39148;53.332;6.922;2023-03-13T08:33:47;7.10;;;1.73;;
53253;SDS011;39148;53.332;6.922;2023-03-13T08:36:14;4.30;;;1.55;;
53253;SDS011;39148;53.332;6.922;2023-03-13T08:38:43;6.18;;;1.55;;
53253;SDS011;39148;53.332;6.922;2023-03-13T08:41:10;4.45;;;1.33;;
53253;SDS011;39148;53.332;6.922;2023-03-13T08:43:36;6.05;;;1.60;;
53253;SDS011;39148;53.332;6.922;2023-03-13T08:46:02;7.88;;;1.60;;
53253;SDS011;39148;53.332;6.922;2023-03-13T08:48:28;4.35;;;1.85;;
53253;SDS011;39148;53.332;6.922;2023-03-13T08:50:59;5.47;;;1.63;;
53253;SDS011;39148;53.332;6.922;2023-03-13T08:53:25;4.95;;;1.50;;
53253;SDS011;39148;53.332;6.922;2023-03-13T08:55:54;5.75;;;1.48;;
53253;SDS011;39148;53.332;6.922;2023-03-13T08:58:20;4.90;;;1.50;;
53253;SDS011;39148;53.332;6.922;2023-03-13T09:00:46;4.38;;;1.27;;
53253;SDS011;39148;53.332;6.922;2023-03-13T09:03:12;5.75;;;1.58;;
53253;SDS011;39148;53.332;6.922;2023-03-13T09:05:38;4.13;;;1.50;;
53253;SDS011;39148;53.332;6.922;2023-03-13T09:08:05;4.93;;;1.35;;
53253;SDS011;39148;53.332;6.922;2023-03-13T09:10:34;5.63;;;1.30;;
53253;SDS011;39148;53.332;6.922;2023-03-13T09:13:00;4.78;;;1.20;;
53253;SDS011;39148;53.332;6.922;2023-03-13T09:15:26;6.95;;;1.33;;
53253;SDS011;39148;53.332;6.922;2023-03-13T09:17:52;5.93;;;1.17;;
53253;SDS011;39148;53.332;6.922;2023-03-13T09:20:19;7.63;;;1.20;;
53253;SDS011;39148;53.332;6.922;2023-03-13T09:22:45;3.47;;;0.90;;
53253;SDS011;39148;53.332;6.922;2023-03-13T09:25:11;5.53;;;1.20;;
53253;SDS011;39148;53.332;6.922;2023-03-13T09:27:38;4.80;;;1.10;;
53253;SDS011;39148;53.332;6.922;2023-03-13T09:30:04;5.25;;;1.00;;
53253;SDS011;39148;53.332;6.922;2023-03-13T09:32:31;5.15;;;1.02;;
53253;SDS011;39148;53.332;6.922;2023-03-13T09:34:57;4.25;;;1.10;;
53253;SDS011;39148;53.332;6.922;2023-03-13T09:37:23;4.00;;;0.90;;
53253;SDS011;39148;53.332;6.922;2023-03-13T09:39:49;4.57;;;1.10;;
53253;SDS011;39148;53.332;6.922;2023-03-13T09:42:31;6.63;;;1.10;;
53253;SDS011;39148;53.332;6.922;2023-03-13T09:45:11;6.78;;;1.20;;
53253;SDS011;39148;53.332;6.922;2023-03-13T09:47:42;6.88;;;1.80;;
53253;SDS011;39148;53.332;6.922;2023-03-13T09:50:17;4.22;;;1.20;;
53253;SDS011;39148;53.332;6.922;2023-03-13T09:52:46;7.03;;;1.30;;
53253;SDS011;39148;53.332;6.922;2023-03-13T09:55:22;7.10;;;1.15;;
53253;SDS011;39148;53.332;6.922;2023-03-13T09:58:03;8.60;;;1.20;;
53253;SDS011;39148;53.332;6.922;2023-03-13T10:00:34;8.75;;;1.23;;
53253;SDS011;39148;53.332;6.922;2023-03-13T10:05:49;6.55;;;1.55;;
53253;SDS011;39148;53.332;6.922;2023-03-13T10:08:26;5.72;;;1.30;;
53253;SDS011;39148;53.332;6.922;2023-03-13T10:10:54;9.38;;;1.98;;
53253;SDS011;39148;53.332;6.922;2023-03-13T10:13:45;6.47;;;1.48;;
53253;SDS011;39148;53.332;6.922;2023-03-13T10:16:09;13.07;;;1.70;;
53253;SDS011;39148;53.332;6.922;2023-03-13T10:18:46;13.50;;;1.73;;
53253;SDS011;39148;53.332;6.922;2023-03-13T10:21:17;8.05;;;1.40;;
53253;SDS011;39148;53.332;6.922;2023-03-13T10:23:45;9.32;;;1.60;;
53253;SDS011;39148;53.332;6.922;2023-03-13T10:26:22;11.18;;;1.65;;
53253;SDS011;39148;53.332;6.922;2023-03-13T10:28:50;8.73;;;1.77;;
53253;SDS011;39148;53.332;6.922;2023-03-13T10:31:19;7.50;;;1.80;;
53253;SDS011;39148;53.332;6.922;2023-03-13T10:33:49;11.10;;;2.10;;
53253;SDS011;39148;53.332;6.922;2023-03-13T10:36:14;8.23;;;1.60;;
53253;SDS011;39148;53.332;6.922;2023-03-13T10:38:50;11.73;;;2.05;;
53253;SDS011;39148;53.332;6.922;2023-03-13T10:41:18;11.02;;;2.15;;
53253;SDS011;39148;53.332;6.922;2023-03-13T10:43:49;8.48;;;1.98;;
53253;SDS011;39148;53.332;6.922;2023-03-13T10:46:23;13.65;;;2.10;;
53253;SDS011;39148;53.332;6.922;2023-03-13T10:48:53;12.20;;;2.28;;
53253;SDS011;39148;53.332;6.922;2023-03-13T10:51:22;8.48;;;1.60;;
53253;SDS011;39148;53.332;6.922;2023-03-13T10:53:48;8.57;;;2.15;;
53253;SDS011;39148;53.332;6.922;2023-03-13T10:56:19;12.93;;;2.30;;
53253;SDS011;39148;53.332;6.922;2023-03-13T10:58:48;11.23;;;2.33;;
53253;SDS011;39148;53.332;6.922;2023-03-13T11:03:50;11.90;;;1.75;;
53253;SDS011;39148;53.332;6.922;2023-03-13T11:06:27;13.07;;;2.15;;
53253;SDS011;39148;53.332;6.922;2023-03-13T11:09:01;10.77;;;2.22;;
53253;SDS011;39148;53.332;6.922;2023-03-13T11:11:27;11.90;;;2.03;;
53253;SDS011;39148;53.332;6.922;2023-03-13T11:14:17;16.45;;;2.33;;
53253;SDS011;39148;53.332;6.922;2023-03-13T11:16:45;12.82;;;2.38;;
53253;SDS011;39148;53.332;6.922;2023-03-13T11:32:37;12.43;;;2.20;;
53253;SDS011;39148;53.332;6.922;2023-03-13T11:35:11;10.57;;;2.33;;
53253;SDS011;39148;53.332;6.922;2023-03-13T11:37:40;18.08;;;2.63;;
53253;SDS011;39148;53.332;6.922;2023-03-13T11:42:45;13.02;;;2.25;;
53253;SDS011;39148;53.332;6.922;2023-03-13T11:55:42;14.32;;;2.58;;
53253;SDS011;39148;53.332;6.922;2023-03-13T12:06:09;12.00;;;2.08;;
53253;SDS011;39148;53.332;6.922;2023-03-13T12:09:03;10.75;;;2.40;;
53253;SDS011;39148;53.332;6.922;2023-03-13T12:11:35;10.80;;;2.80;;
53253;SDS011;39148;53.332;6.922;2023-03-13T12:16:47;9.63;;;1.90;;
53253;SDS011;39148;53.332;6.922;2023-03-13T12:19:19;12.35;;;2.28;;
53253;SDS011;39148;53.332;6.922;2023-03-13T12:21:51;9.23;;;2.00;;
53253;SDS011;39148;53.332;6.922;2023-03-13T12:24:32;10.25;;;1.85;;
53253;SDS011;39148;53.332;6.922;2023-03-13T12:27:20;9.25;;;1.60;;
53253;SDS011;39148;53.332;6.922;2023-03-13T12:43:50;12.55;;;1.83;;
53253;SDS011;39148;53.332;6.922;2023-03-13T13:00:28;15.65;;;2.45;;
53253;SDS011;39148;53.332;6.922;2023-03-13T13:03:05;15.35;;;2.53;;
53253;SDS011;39148;53.332;6.922;2023-03-13T13:08:30;15.45;;;2.33;;
53253;SDS011;39148;53.332;6.922;2023-03-13T13:16:49;13.70;;;2.22;;
53253;SDS011;39148;53.332;6.922;2023-03-13T13:24:57;14.52;;;2.58;;
53253;SDS011;39148;53.332;6.922;2023-03-13T13:27:27;14.20;;;2.90;;
53253;SDS011;39148;53.332;6.922;2023-03-13T13:37:46;18.88;;;3.53;;
53253;SDS011;39148;53.332;6.922;2023-03-13T13:43:03;15.95;;;2.90;;
53253;SDS011;39148;53.332;6.922;2023-03-13T13:45:37;24.88;;;2.75;;
53253;SDS011;39148;53.332;6.922;2023-03-13T13:48:15;19.75;;;2.70;;
53253;SDS011;39148;53.332;6.922;2023-03-13T13:53:55;14.40;;;2.75;;
53253;SDS011;39148;53.332;6.922;2023-03-13T13:58:56;17.10;;;2.92;;
53253;SDS011;39148;53.332;6.922;2023-03-13T14:01:23;22.73;;;3.35;;
53253;SDS011;39148;53.332;6.922;2023-03-13T14:03:49;17.67;;;3.22;;
53253;SDS011;39148;53.332;6.922;2023-03-13T14:06:19;15.10;;;3.00;;
53253;SDS011;39148;53.332;6.922;2023-03-13T14:08:48;15.77;;;2.92;;
53253;SDS011;39148;53.332;6.922;2023-03-13T14:16:35;22.75;;;3.38;;
53253;SDS011;39148;53.332;6.922;2023-03-13T14:19:02;15.43;;;2.85;;
53253;SDS011;39148;53.332;6.922;2023-03-13T14:21:28;20.85;;;3.63;;
53253;SDS011;39148;53.332;6.922;2023-03-13T14:23:54;19.25;;;3.05;;
53253;SDS011;39148;53.332;6.922;2023-03-13T14:26:26;22.23;;;3.10;;
53253;SDS011;39148;53.332;6.922;2023-03-13T14:28:57;24.80;;;3.10;;
53253;SDS011;39148;53.332;6.922;2023-03-13T14:31:33;18.42;;;2.80;;
53253;SDS011;39148;53.332;6.922;2023-03-13T14:34:10;19.58;;;3.08;;
53253;SDS011;39148;53.332;6.922;2023-03-13T14:39:19;22.65;;;3.28;;
53253;SDS011;39148;53.332;6.922;2023-03-13T14:44:29;19.23;;;3.33;;
53253;SDS011;39148;53.332;6.922;2023-03-13T14:47:04;17.73;;;3.15;;
53253;SDS011;39148;53.332;6.922;2023-03-13T14:49:32;18.45;;;4.32;;
53253;SDS011;39148;53.332;6.922;2023-03-13T14:51:59;18.95;;;3.72;;
53253;SDS011;39148;53.332;6.922;2023-03-13T14:59:41;16.33;;;3.15;;
53253;SDS011;39148;53.332;6.922;2023-03-13T15:05:00;19.33;;;3.15;;
53253;SDS011;39148;53.332;6.922;2023-03-13T15:12:57;22.05;;;3.42;;
53253;SDS011;39148;53.332;6.922;2023-03-13T15:15:23;17.05;;;3.25;;
53253;SDS011;39148;53.332;6.922;2023-03-13T15:17:49;22.42;;;3.92;;
53253;SDS011;39148;53.332;6.922;2023-03-13T15:20:15;23.98;;;3.58;;
53253;SDS011;39148;53.332;6.922;2023-03-13T15:22:43;19.40;;;3.20;;
53253;SDS011;39148;53.332;6.922;2023-03-13T15:27:42;18.50;;;3.30;;
53253;SDS011;39148;53.332;6.922;2023-03-13T15:30:19;19.77;;;3.65;;
53253;SDS011;39148;53.332;6.922;2023-03-13T15:32:49;22.08;;;3.72;;
53253;SDS011;39148;53.332;6.922;2023-03-13T15:37:51;24.77;;;3.42;;
53253;SDS011;39148;53.332;6.922;2023-03-13T15:40:17;18.00;;;3.38;;
53253;SDS011;39148;53.332;6.922;2023-03-13T15:42:44;17.08;;;3.10;;
53253;SDS011;39148;53.332;6.922;2023-03-13T15:45:10;18.58;;;3.67;;
53253;SDS011;39148;53.332;6.922;2023-03-13T15:47:36;19.10;;;3.28;;
53253;SDS011;39148;53.332;6.922;2023-03-13T15:50:02;20.05;;;4.28;;
53253;SDS011;39148;53.332;6.922;2023-03-13T15:52:28;21.50;;;3.97;;
53253;SDS011;39148;53.332;6.922;2023-03-13T15:54:54;18.92;;;3.35;;
53253;SDS011;39148;53.332;6.922;2023-03-13T15:57:21;19.55;;;3.08;;
53253;SDS011;39148;53.332;6.922;2023-03-13T15:59:50;19.70;;;4.10;;
53253;SDS011;39148;53.332;6.922;2023-03-13T16:02:17;22.67;;;3.95;;
53253;SDS011;39148;53.332;6.922;2023-03-13T16:04:44;21.83;;;4.60;;
53253;SDS011;39148;53.332;6.922;2023-03-13T16:07:11;18.75;;;3.10;;
53253;SDS011;39148;53.332;6.922;2023-03-13T16:09:39;21.02;;;3.15;;
53253;SDS011;39148;53.332;6.922;2023-03-13T16:12:07;20.05;;;3.47;;
53253;SDS011;39148;53.332;6.922;2023-03-13T16:14:33;20.75;;;3.83;;
53253;SDS011;39148;53.332;6.922;2023-03-13T16:16:59;23.38;;;3.67;;
53253;SDS011;39148;53.332;6.922;2023-03-13T16:19:27;20.90;;;4.00;;
53253;SDS011;39148;53.332;6.922;2023-03-13T16:21:54;16.98;;;3.92;;
53253;SDS011;39148;53.332;6.922;2023-03-13T16:24:20;19.10;;;3.70;;
53253;SDS011;39148;53.332;6.922;2023-03-13T16:26:46;21.02;;;4.10;;
53253;SDS011;39148;53.332;6.922;2023-03-13T16:29:12;19.80;;;3.53;;
53253;SDS011;39148;53.332;6.922;2023-03-13T16:31:40;19.23;;;4.57;;
53253;SDS011;39148;53.332;6.922;2023-03-13T16:34:06;18.85;;;3.55;;
53253;SDS011;39148;53.332;6.922;2023-03-13T16:36:33;22.75;;;4.10;;
53253;SDS011;39148;53.332;6.922;2023-03-13T16:39:04;22.30;;;3.95;;
53253;SDS011;39148;53.332;6.922;2023-03-13T16:41:34;19.92;;;4.00;;
53253;SDS011;39148;53.332;6.922;2023-03-13T16:44:00;19.55;;;4.00;;
53253;SDS011;39148;53.332;6.922;2023-03-13T16:49:05;22.33;;;4.38;;
53253;SDS011;39148;53.332;6.922;2023-03-13T16:51:34;19.13;;;3.53;;
53253;SDS011;39148;53.332;6.922;2023-03-13T16:54:00;22.58;;;3.95;;
53253;SDS011;39148;53.332;6.922;2023-03-13T16:58:59;20.25;;;4.35;;
53253;SDS011;39148;53.332;6.922;2023-03-13T17:01:29;23.77;;;4.25;;
53253;SDS011;39148;53.332;6.922;2023-03-13T17:03:56;21.77;;;3.78;;
53253;SDS011;39148;53.332;6.922;2023-03-13T17:08:48;22.50;;;4.40;;